| time (UTC) | temp C | wind direction | speed KPH | gust KPH | rain 1hr cm | rain 24hr cm | rain mn cm | humidity % | barometer mb |
| 20260507110040 | 11 | 0 | 0.0 | 0.0 | 0.00 | 0.41 | 0.20 | 95 | 1012.2 |
| 20260507104540 | 11 | 0 | 0.0 | 0.0 | 0.00 | 0.41 | 0.20 | 95 | 1012.1 |
| 20260507103050 | 11 | 0 | 0.0 | 0.0 | 0.00 | 0.41 | 0.20 | 95 | 1011.8 |
| 20260507101534 | 11 | 0 | 0.0 | 0.0 | 0.00 | 0.41 | 0.20 | 94 | 1011.7 |
| 20260507100042 | 11 | 0 | 0.0 | 0.0 | 0.00 | 0.41 | 0.20 | 94 | 1011.5 |
| 20260507094542 | 11 | 0 | 0.0 | 0.0 | 0.00 | 0.41 | 0.20 | 94 | 1011.5 |
| 20260507093036 | 12 | 0 | 0.0 | 1.6 | 0.00 | 0.41 | 0.20 | 94 | 1011.4 |
| 20260507091537 | 12 | 0 | 0.0 | 0.0 | 0.03 | 0.41 | 0.20 | 94 | 1011.5 |
| 20260507090041 | 12 | 0 | 0.0 | 1.6 | 0.03 | 0.41 | 0.20 | 95 | 1011.3 |
| 20260507084545 | 13 | 0 | 0.0 | 0.0 | 0.03 | 0.41 | 0.20 | 96 | 1011.1 |
| 20260507083041 | 13 | 0 | 0.0 | 1.6 | 0.03 | 0.41 | 0.20 | 96 | 1011.2 |
| 20260507081546 | 13 | 0 | 0.0 | 0.0 | 0.00 | 0.38 | 0.18 | 96 | 1011.0 |
| 20260507080040 | 13 | 0 | 0.0 | 0.0 | 0.00 | 0.38 | 0.18 | 96 | 1010.6 |
| 20260507074537 | 13 | 0 | 0.0 | 0.0 | 0.00 | 0.38 | 0.18 | 96 | 1010.5 |
| 20260507073034 | 13 | 0 | 0.0 | 0.0 | 0.00 | 0.38 | 0.18 | 96 | 1010.2 |
| 20260507071541 | 13 | 0 | 0.0 | 0.0 | 0.00 | 0.38 | 0.18 | 96 | 1010.5 |
| 20260507070045 | 13 | 0 | 0.0 | 0.0 | 0.00 | 0.38 | 0.18 | 96 | 1009.9 |
| 20260507064539 | 13 | 0 | 0.0 | 3.2 | 0.03 | 0.38 | 0.18 | 95 | 1009.8 |
| 20260507063041 | 14 | 0 | 0.0 | 1.6 | 0.05 | 0.38 | 0.18 | 96 | 1009.8 |
| 20260507061538 | 14 | 0 | 0.0 | 0.0 | 0.08 | 0.38 | 0.18 | 95 | 1009.3 |
| 20260507060042 | 15 | 0 | 0.0 | 0.0 | 0.10 | 0.38 | 0.18 | 95 | 1009.1 |
| 20260507054542 | 15 | 0 | 0.0 | 0.0 | 0.15 | 0.36 | 0.15 | 95 | 1009.8 |
| 20260507053040 | 15 | 0 | 0.0 | 0.0 | 0.13 | 0.33 | 0.13 | 94 | 1010.2 |
| 20260507051540 | 15 | 0 | 0.0 | 0.0 | 0.10 | 0.30 | 0.10 | 94 | 1010.3 |
| 20260507050036 | 15 | 280 | 0.0 | 1.6 | 0.08 | 0.28 | 0.08 | 91 | 1010.2 |
| 20260507044535 | 16 | 0 | 0.0 | 0.0 | 0.00 | 0.20 | 0.00 | 87 | 1010.1 |
| 20260507043048 | 17 | 0 | 0.0 | 3.2 | 0.00 | 0.20 | 0.00 | 83 | 1010.0 |
| 20260507041542 | 17 | 264 | 0.0 | 1.6 | 0.00 | 0.20 | 0.00 | 85 | 1010.4 |
| 20260507040041 | 18 | 0 | 0.0 | 1.6 | 0.00 | 0.20 | 0.00 | 87 | 1009.9 |
| 20260507034538 | 18 | 283 | 0.0 | 3.2 | 0.00 | 0.20 | 0.20 | 88 | 1009.5 |
| 20260507033035 | 18 | 0 | 0.0 | 0.0 | 0.00 | 0.20 | 0.20 | 90 | 1009.6 |
| 20260507031534 | 18 | 0 | 0.0 | 0.0 | 0.00 | 0.20 | 0.20 | 90 | 1009.2 |
| 20260507030042 | 18 | 0 | 0.0 | 0.0 | 0.00 | 0.20 | 0.20 | 90 | 1009.3 |
| 20260507024542 | 18 | 0 | 0.0 | 0.0 | 0.00 | 0.20 | 0.20 | 89 | 1009.0 |
| 20260507023043 | 18 | 0 | 0.0 | 0.0 | 0.00 | 0.20 | 0.20 | 89 | 1008.8 |
| 20260507021539 | 18 | 0 | 0.0 | 0.0 | 0.00 | 0.20 | 0.20 | 90 | 1008.7 |
| 20260507020047 | 18 | 0 | 0.0 | 0.0 | 0.00 | 0.20 | 0.20 | 89 | 1009.1 |
| 20260507014541 | 18 | 0 | 0.0 | 0.0 | 0.00 | 0.20 | 0.20 | 88 | 1009.1 |
| 20260507013040 | 18 | 0 | 0.0 | 0.0 | 0.00 | 0.20 | 0.20 | 88 | 1009.1 |
| 20260507011543 | 19 | 0 | 0.0 | 0.0 | 0.00 | 0.20 | 0.20 | 87 | 1009.3 |
| 20260507010041 | 19 | 0 | 0.0 | 0.0 | 0.00 | 0.20 | 0.20 | 86 | 1009.3 |
| 20260507004540 | 19 | 0 | 0.0 | 0.0 | 0.00 | 0.20 | 0.20 | 86 | 1009.1 |
| 20260507003036 | 19 | 0 | 0.0 | 0.0 | 0.00 | 0.20 | 0.20 | 85 | 1008.8 |
| 20260507001603 | 20 | 0 | 0.0 | 1.6 | 0.00 | 0.20 | 0.20 | 84 | 1008.8 |
| 20260507000041 | 20 | 0 | 0.0 | 1.6 | 0.00 | 0.20 | 0.20 | 83 | 1008.5 |
| 20260506234533 | 20 | 0 | 0.0 | 1.6 | 0.00 | 0.20 | 0.20 | 83 | 1008.3 |
| 20260506233033 | 20 | 0 | 0.0 | 1.6 | 0.00 | 0.20 | 0.20 | 83 | 1008.3 |
| 20260506231537 | 20 | 0 | 0.0 | 1.6 | 0.00 | 0.20 | 0.20 | 82 | 1008.2 |
| 20260506230051 | 20 | 0 | 0.0 | 3.2 | 0.00 | 0.20 | 0.20 | 82 | 1008.2 |
| 20260506224535 | 20 | 0 | 0.0 | 3.2 | 0.00 | 0.20 | 0.20 | 82 | 1008.1 |
| 20260506223042 | 20 | 0 | 0.0 | 1.6 | 0.00 | 0.20 | 0.20 | 81 | 1008.1 |
| 20260506221551 | 20 | 0 | 0.0 | 3.2 | 0.00 | 0.20 | 0.20 | 81 | 1008.2 |
| 20260506220040 | 20 | 0 | 0.0 | 4.8 | 0.00 | 0.20 | 0.20 | 81 | 1008.2 |
| 20260506214537 | 20 | 0 | 0.0 | 3.2 | 0.00 | 0.20 | 0.20 | 81 | 1008.3 |
| 20260506213035 | 20 | 0 | 0.0 | 4.8 | 0.00 | 0.20 | 0.20 | 81 | 1008.2 |
| 20260506211534 | 20 | 50 | 0.0 | 8.0 | 0.00 | 0.20 | 0.20 | 80 | 1008.1 |
| 20260506210052 | 20 | 0 | 0.0 | 8.0 | 0.00 | 0.20 | 0.20 | 80 | 1008.0 |
| 20260506204532 | 20 | 295 | 0.0 | 3.2 | 0.00 | 0.20 | 0.20 | 81 | 1007.9 |
| 20260506203039 | 20 | 309 | 1.6 | 6.4 | 0.00 | 0.20 | 0.20 | 81 | 1007.9 |
| 20260506201534 | 20 | 304 | 0.0 | 8.0 | 0.00 | 0.20 | 0.20 | 82 | 1007.9 |
| 20260506200040 | 19 | 305 | 0.0 | 6.4 | 0.00 | 0.20 | 0.20 | 82 | 1008.0 |
| 20260506194536 | 19 | 0 | 0.0 | 8.0 | 0.00 | 0.20 | 0.20 | 83 | 1008.1 |
| 20260506193042 | 19 | 104 | 0.0 | 9.7 | 0.00 | 0.20 | 0.20 | 83 | 1008.5 |
| 20260506191534 | 19 | 291 | 0.0 | 8.0 | 0.00 | 0.20 | 0.20 | 84 | 1008.8 |
| 20260506190040 | 19 | 200 | 0.0 | 6.4 | 0.00 | 0.20 | 0.20 | 84 | 1008.8 |
| 20260506184544 | 19 | 0 | 0.0 | 8.0 | 0.00 | 0.20 | 0.20 | 84 | 1008.8 |
| 20260506183035 | 18 | 0 | 0.0 | 6.4 | 0.00 | 0.20 | 0.20 | 84 | 1008.8 |
| 20260506181548 | 18 | 64 | 1.6 | 9.7 | 0.00 | 0.20 | 0.20 | 83 | 1009.2 |
| 20260506180040 | 18 | 256 | 0.0 | 11.3 | 0.00 | 0.20 | 0.20 | 84 | 1009.1 |
| 20260506174539 | 18 | 0 | 0.0 | 9.7 | 0.00 | 0.20 | 0.20 | 84 | 1009.5 |
| 20260506173044 | 18 | 310 | 0.0 | 4.8 | 0.00 | 0.20 | 0.20 | 85 | 1009.5 |
| 20260506171538 | 18 | 5 | 1.6 | 6.4 | 0.00 | 0.20 | 0.20 | 85 | 1009.6 |
| 20260506170043 | 18 | 0 | 1.6 | 9.7 | 0.00 | 0.20 | 0.20 | 88 | 1009.5 |
| 20260506164555 | 17 | 98 | 0.0 | 4.8 | 0.00 | 0.20 | 0.20 | 91 | 1009.5 |
| 20260506163048 | 17 | 0 | 0.0 | 8.0 | 0.03 | 0.20 | 0.20 | 91 | 1009.7 |
| 20260506161543 | 17 | 110 | 0.0 | 4.8 | 0.03 | 0.20 | 0.20 | 92 | 1009.9 |
| 20260506160045 | 17 | 173 | 0.0 | 8.0 | 0.10 | 0.20 | 0.20 | 93 | 1010.0 |
| 20260506154542 | 16 | 0 | 1.6 | 11.3 | 0.13 | 0.20 | 0.20 | 93 | 1010.0 |
| 20260506153041 | 16 | 0 | 0.0 | 6.4 | 0.13 | 0.18 | 0.18 | 94 | 1010.3 |
| 20260506151541 | 16 | 0 | 0.0 | 3.2 | 0.13 | 0.18 | 0.18 | 93 | 1010.4 |
| 20260506150048 | 16 | 0 | 0.0 | 9.7 | 0.08 | 0.10 | 0.10 | 94 | 1010.6 |
| 20260506144540 | 16 | 0 | 0.0 | 8.0 | 0.08 | 0.08 | 0.08 | 93 | 1010.7 |
| 20260506143040 | 16 | 0 | 0.0 | 4.8 | 0.05 | 0.05 | 0.05 | 92 | 1010.8 |
| 20260506141541 | 16 | 0 | 0.0 | 3.2 | 0.03 | 0.03 | 0.03 | 91 | 1010.8 |
| 20260506140034 | 16 | 0 | 0.0 | 8.0 | 0.03 | 0.03 | 0.03 | 90 | 1010.8 |
| 20260506134538 | 16 | 0 | 0.0 | 4.8 | 0.00 | 0.00 | 0.00 | 88 | 1011.1 |
| 20260506133050 | 17 | 287 | 0.0 | 4.8 | 0.00 | 0.00 | 0.00 | 85 | 1011.0 |
| 20260506131540 | 17 | 0 | 0.0 | 1.6 | 0.00 | 0.00 | 0.00 | 81 | 1011.0 |
| 20260506130040 | 17 | 0 | 0.0 | 6.4 | 0.00 | 0.00 | 0.00 | 79 | 1010.6 |
| 20260506124536 | 17 | 0 | 0.0 | 4.8 | 0.00 | 0.00 | 0.00 | 79 | 1010.4 |
| 20260506123035 | 17 | 98 | 0.0 | 4.8 | 0.00 | 0.00 | 0.00 | 79 | 1010.3 |
| 20260506121548 | 17 | 0 | 0.0 | 4.8 | 0.00 | 0.00 | 0.00 | 79 | 1010.7 |
| 20260506120056 | 18 | 0 | 0.0 | 4.8 | 0.00 | 0.00 | 0.00 | 77 | 1010.8 |
| 20260506114535 | 18 | 0 | 1.6 | 8.0 | 0.00 | 0.00 | 0.00 | 77 | 1010.7 |
| 20260506113034 | 18 | 0 | 0.0 | 8.0 | 0.00 | 0.00 | 0.00 | 78 | 1010.5 |
| 20260506111546 | 18 | 0 | 0.0 | 9.7 | 0.00 | 0.00 | 0.00 | 78 | 1010.4 |